Time;durP1;ratioP1;P1;durP2;ratioP2;P2;SDS_P1;SDS_P2;PMS_P1;PMS_P2;Temp;Humidity;BMP_temperature;BMP_pressure;BME280_temperature;BME280_humidity;BME280_pressure;Samples;Min_cycle;Max_cycle;Signal;HPM_P1;HPM_P2
2023/04/30 00:01:36;;;;;;;4.70;2.30;;;7.90;99.90;;;;;;5204596;28;20204;-49
2023/04/30 00:04:07;;;;;;;10.00;1.90;;;7.80;99.90;;;;;;5201132;28;20633;-48
2023/04/30 00:06:38;;;;;;;5.50;1.80;;;7.70;99.90;;;;;;5203585;28;20280;-49
2023/04/30 00:09:08;;;;;;;4.10;1.67;;;7.70;99.90;;;;;;5205107;28;20180;-49
2023/04/30 00:11:39;;;;;;;4.80;2.20;;;7.70;99.90;;;;;;5197207;28;20762;-47
2023/04/30 00:14:10;;;;;;;5.37;2.07;;;7.70;99.90;;;;;;5201071;28;20681;-48
2023/04/30 00:16:40;;;;;;;6.77;2.30;;;7.60;99.90;;;;;;5204728;28;20202;-49
2023/04/30 00:19:11;;;;;;;1.57;1.47;;;7.60;99.90;;;;;;5202372;28;20187;-46
2023/04/30 00:21:42;;;;;;;4.10;1.67;;;7.50;99.90;;;;;;5206492;28;20916;-47
2023/04/30 00:24:12;;;;;;;3.50;1.60;;;7.50;99.90;;;;;;5200700;28;20294;-47
2023/04/30 00:26:43;;;;;;;1.80;1.70;;;7.50;99.90;;;;;;5207883;28;20557;-47
2023/04/30 00:29:13;;;;;;;8.23;1.87;;;7.50;99.90;;;;;;5201876;28;20188;-49
2023/04/30 00:31:44;;;;;;;4.27;1.80;;;7.40;99.90;;;;;;5206767;28;20183;-49
2023/04/30 00:34:14;;;;;;;3.57;2.07;;;7.40;99.90;;;;;;5207484;28;20251;-48
2023/04/30 00:36:45;;;;;;;6.97;1.93;;;7.30;99.90;;;;;;5204651;28;20184;-46
2023/04/30 00:39:16;;;;;;;2.83;1.33;;;7.30;99.90;;;;;;5199502;28;20636;-49
2023/04/30 00:41:46;;;;;;;4.40;2.23;;;7.30;99.90;;;;;;5205974;28;20188;-48
2023/04/30 00:44:17;;;;;;;3.30;1.33;;;7.20;99.90;;;;;;5204176;28;20214;-47
2023/04/30 00:46:48;;;;;;;4.53;2.00;;;7.20;99.90;;;;;;5201350;28;20219;-46
2023/04/30 00:49:18;;;;;;;10.43;2.27;;;7.10;99.90;;;;;;5201692;28;20262;-47
2023/04/30 00:51:51;;;;;;;7.53;2.00;;;7.10;99.90;;;;;;5202854;28;20241;-46
2023/04/30 00:54:23;;;;;;;5.77;2.10;;;7.10;99.90;;;;;;5201807;28;20200;-47
2023/04/30 00:56:54;;;;;;;7.13;1.60;;;7.10;99.90;;;;;;5200743;28;20465;-47
2023/04/30 00:59:25;;;;;;;3.20;2.10;;;7.10;99.90;;;;;;5185954;28;20489;-48
2023/04/30 01:01:56;;;;;;;3.53;1.50;;;7.10;99.90;;;;;;5202505;28;20431;-48
2023/04/30 01:04:27;;;;;;;5.03;1.83;;;7.00;99.90;;;;;;5203991;28;20454;-47
2023/04/30 01:07:01;;;;;;;10.40;2.20;;;7.00;99.90;;;;;;5202390;28;20251;-48
2023/04/30 01:09:31;;;;;;;4.07;1.60;;;7.00;99.90;;;;;;5217994;28;21336;-46
2023/04/30 01:12:22;;;;;;;2.93;2.20;;;6.90;99.90;;;;;;5203855;28;20442;-47
2023/04/30 01:15:26;;;;;;;9.90;3.20;;;6.90;99.90;;;;;;5216172;28;20607;-46
2023/04/30 01:18:09;;;;;;;8.00;1.93;;;6.90;99.90;;;;;;5197974;28;21023;-46
2023/04/30 01:20:48;;;;;;;13.70;2.20;;;6.90;99.90;;;;;;5202466;28;21037;-47
2023/04/30 01:23:58;;;;;;;8.23;2.40;;;6.80;99.90;;;;;;5203714;28;20520;-48
2023/04/30 01:26:58;;;;;;;6.30;2.00;;;6.80;99.90;;;;;;5202045;28;20453;-47
2023/04/30 01:29:29;;;;;;;4.03;1.97;;;6.80;99.90;;;;;;5201436;28;20462;-50
2023/04/30 01:32:01;;;;;;;12.93;3.00;;;6.80;99.90;;;;;;5201801;28;20453;-48
2023/04/30 01:34:31;;;;;;;6.17;1.50;;;6.70;99.90;;;;;;5202827;28;20827;-47
2023/04/30 01:37:41;;;;;;;3.90;1.97;;;6.70;99.90;;;;;;5199262;28;20443;-47
2023/04/30 01:40:30;;;;;;;5.10;1.63;;;6.70;99.90;;;;;;5202227;28;20191;-49
2023/04/30 01:43:43;;;;;;;11.67;1.97;;;6.70;99.90;;;;;;5202509;28;20437;-48
2023/04/30 01:46:26;;;;;;;17.13;3.40;;;6.60;99.90;;;;;;5200597;28;20805;-47
2023/04/30 01:49:15;;;;;;;8.60;2.10;;;6.60;99.90;;;;;;5204107;28;20446;-46
2023/04/30 01:51:47;;;;;;;9.33;2.63;;;6.60;99.90;;;;;;5200753;28;20439;-48
2023/04/30 01:54:25;;;;;;;2.60;1.80;;;6.60;99.90;;;;;;5199645;28;20446;-47
2023/04/30 01:57:03;;;;;;;5.50;1.80;;;6.60;99.90;;;;;;5199323;28;20519;-49
2023/04/30 01:59:37;;;;;;;2.60;2.00;;;6.60;99.90;;;;;;5200445;28;20468;-47
2023/04/30 02:02:08;;;;;;;6.20;2.43;;;6.50;99.90;;;;;;5201521;28;20438;-47
2023/04/30 02:04:38;;;;;;;13.83;2.20;;;6.50;99.90;;;;;;5217270;28;20489;-46
2023/04/30 02:07:10;;;;;;;13.00;2.37;;;6.50;99.90;;;;;;5202248;28;20210;-47
2023/04/30 02:09:40;;;;;;;6.13;2.53;;;6.40;99.90;;;;;;5200487;28;20172;-48
2023/04/30 02:12:11;;;;;;;4.80;2.57;;;6.40;99.90;;;;;;5201713;28;20434;-48
2023/04/30 02:14:41;;;;;;;6.57;2.27;;;6.40;99.90;;;;;;5203635;28;20214;-48
2023/04/30 02:17:12;;;;;;;2.60;2.07;;;6.40;99.90;;;;;;5199520;28;20196;-47
2023/04/30 02:19:43;;;;;;;6.30;2.63;;;6.40;99.90;;;;;;5204195;28;20245;-47
2023/04/30 02:22:13;;;;;;;6.90;2.47;;;6.40;99.90;;;;;;5201826;28;20219;-47
2023/04/30 02:24:44;;;;;;;4.70;2.03;;;6.30;99.90;;;;;;5204109;28;20242;-47
2023/04/30 02:27:15;;;;;;;3.77;2.03;;;6.30;99.90;;;;;;5204354;28;20207;-48
2023/04/30 02:29:46;;;;;;;6.60;2.90;;;6.30;99.90;;;;;;5202781;28;20908;-46
2023/04/30 02:32:16;;;;;;;10.33;2.20;;;6.20;99.90;;;;;;5203243;28;20203;-48
2023/04/30 02:34:47;;;;;;;3.50;2.20;;;6.20;99.90;;;;;;5203600;28;20203;-47
2023/04/30 02:37:18;;;;;;;5.63;2.33;;;6.20;99.90;;;;;;5219067;28;20184;-48
2023/04/30 02:39:50;;;;;;;5.33;2.03;;;6.20;99.90;;;;;;5202253;28;20202;-47
2023/04/30 02:42:20;;;;;;;4.80;1.90;;;6.10;99.90;;;;;;5204530;28;20195;-47
2023/04/30 02:44:51;;;;;;;10.63;2.10;;;6.10;99.90;;;;;;5202354;28;20457;-47
2023/04/30 02:47:22;;;;;;;2.07;1.83;;;6.10;99.90;;;;;;5201606;28;20239;-47
2023/04/30 02:49:52;;;;;;;3.07;2.30;;;6.10;99.90;;;;;;5203828;28;20231;-47
2023/04/30 02:52:23;;;;;;;15.50;2.60;;;6.10;99.90;;;;;;5201685;28;20199;-48
2023/04/30 02:54:54;;;;;;;6.10;2.43;;;6.10;99.90;;;;;;5200991;28;20234;-48
2023/04/30 02:57:25;;;;;;;6.17;2.93;;;6.00;99.90;;;;;;5199455;28;20438;-47
2023/04/30 02:59:55;;;;;;;3.87;1.97;;;6.00;99.90;;;;;;5198794;28;20179;-47
2023/04/30 03:02:26;;;;;;;7.50;2.63;;;6.00;99.90;;;;;;5217257;28;20211;-47
2023/04/30 03:04:57;;;;;;;5.00;2.37;;;6.00;99.90;;;;;;5200099;28;20210;-47
2023/04/30 03:07:27;;;;;;;3.90;1.90;;;6.00;99.90;;;;;;5201389;28;20260;-47
2023/04/30 03:09:58;;;;;;;8.67;2.80;;;6.00;99.90;;;;;;5201121;28;20537;-46
2023/04/30 03:12:28;;;;;;;5.93;2.13;;;6.00;99.90;;;;;;5201838;28;20191;-47
2023/04/30 03:14:59;;;;;;;7.83;2.30;;;6.00;99.90;;;;;;5199836;28;20655;-48
2023/04/30 03:17:30;;;;;;;2.37;1.70;;;6.00;99.90;;;;;;5202714;28;20198;-47
2023/04/30 03:20:00;;;;;;;10.47;2.63;;;6.00;99.90;;;;;;5199850;28;20636;-46
2023/04/30 03:22:31;;;;;;;4.20;1.97;;;5.90;99.90;;;;;;5202337;28;20290;-46
2023/04/30 03:25:02;;;;;;;14.13;3.27;;;5.90;99.90;;;;;;5198736;28;20210;-47
2023/04/30 03:27:32;;;;;;;4.60;2.77;;;5.80;99.90;;;;;;5198403;28;20286;-47
2023/04/30 03:30:03;;;;;;;6.70;2.67;;;5.80;99.90;;;;;;5199193;28;20438;-47
2023/04/30 03:32:34;;;;;;;6.70;2.67;;;5.70;99.90;;;;;;5199607;28;20237;-46
2023/04/30 03:35:05;;;;;;;10.23;2.80;;;5.70;99.90;;;;;;5200765;28;20980;-46
2023/04/30 03:37:36;;;;;;;4.03;2.60;;;5.70;99.90;;;;;;5200325;28;20879;-46
2023/04/30 03:40:07;;;;;;;5.23;1.93;;;5.70;99.90;;;;;;5197485;28;20454;-47
2023/04/30 03:42:38;;;;;;;8.53;2.63;;;5.70;99.90;;;;;;5199256;28;20186;-46
2023/04/30 03:45:09;;;;;;;8.17;2.63;;;5.70;99.90;;;;;;5197836;28;20833;-47
2023/04/30 03:47:39;;;;;;;5.97;2.67;;;5.70;99.90;;;;;;5201988;28;20218;-47
2023/04/30 03:50:10;;;;;;;2.93;2.57;;;5.70;99.90;;;;;;5199028;28;20432;-46
2023/04/30 03:52:41;;;;;;;6.73;2.67;;;5.60;99.90;;;;;;5196415;28;20234;-48
2023/04/30 03:55:12;;;;;;;3.50;3.07;;;5.70;99.90;;;;;;5199182;28;20663;-46
2023/04/30 03:57:43;;;;;;;7.83;3.10;;;5.60;99.90;;;;;;5211894;28;20182;-46
2023/04/30 04:00:14;;;;;;;2.87;2.53;;;5.70;99.90;;;;;;5195181;28;20456;-48
2023/04/30 04:02:44;;;;;;;3.90;2.80;;;5.70;99.90;;;;;;5199162;28;20947;-47
2023/04/30 04:05:15;;;;;;;7.50;2.83;;;5.70;99.90;;;;;;5197783;28;20462;-47
2023/04/30 04:07:46;;;;;;;3.63;2.17;;;5.80;99.90;;;;;;5195904;28;20204;-47
2023/04/30 04:10:16;;;;;;;5.20;2.90;;;5.80;99.90;;;;;;5200128;28;20188;-47
2023/04/30 04:12:47;;;;;;;2.60;2.37;;;5.70;99.90;;;;;;5198723;28;20631;-47
2023/04/30 04:15:18;;;;;;;2.50;2.30;;;5.80;99.90;;;;;;5192002;28;20207;-48
2023/04/30 04:17:49;;;;;;;6.00;2.50;;;5.80;99.90;;;;;;5193837;28;20590;-46
2023/04/30 04:20:19;;;;;;;4.30;2.20;;;5.90;99.90;;;;;;5199043;28;20214;-47
2023/04/30 04:22:50;;;;;;;7.13;2.43;;;5.80;99.90;;;;;;5201505;28;20190;-47
2023/04/30 04:25:24;;;;;;;6.53;2.70;;;5.90;99.90;;;;;;5200115;28;20211;-47
2023/04/30 04:27:54;;;;;;;4.50;2.67;;;5.90;99.90;;;;;;5202060;28;20294;-48
2023/04/30 04:30:25;;;;;;;5.10;2.87;;;6.00;99.90;;;;;;5202415;28;20510;-47
2023/04/30 04:32:56;;;;;;;6.10;2.77;;;6.10;99.90;;;;;;5202039;28;20184;-48
2023/04/30 04:35:26;;;;;;;7.43;3.07;;;6.20;99.90;;;;;;5203670;28;20206;-47
2023/04/30 04:37:57;;;;;;;7.00;2.67;;;6.40;99.90;;;;;;5205785;28;20842;-46
2023/04/30 04:40:28;;;;;;;3.20;2.33;;;6.70;99.90;;;;;;5206437;28;20194;-46
2023/04/30 04:42:59;;;;;;;5.47;2.67;;;6.90;99.90;;;;;;5206550;28;20873;-46
2023/04/30 04:45:30;;;;;;;10.03;3.00;;;7.10;99.90;;;;;;5221228;28;20290;-45
2023/04/30 04:48:01;;;;;;;7.13;3.17;;;7.20;99.90;;;;;;5207122;28;20203;-46
2023/04/30 04:50:31;;;;;;;7.20;2.60;;;7.50;99.90;;;;;;5206079;28;20500;-46
2023/04/30 04:53:02;;;;;;;3.30;2.60;;;8.00;99.90;;;;;;5204188;28;20218;-47
2023/04/30 04:55:33;;;;;;;9.67;3.80;;;8.60;99.90;;;;;;5206540;28;20207;-47
2023/04/30 04:58:04;;;;;;;10.60;2.20;;;9.20;99.90;;;;;;5204151;28;20206;-46
2023/04/30 05:00:34;;;;;;;10.40;3.33;;;9.60;99.90;;;;;;5205512;28;20438;-45
2023/04/30 05:03:05;;;;;;;15.37;2.43;;;9.50;99.90;;;;;;5205094;28;20266;-46
2023/04/30 05:05:36;;;;;;;6.27;2.40;;;9.50;99.90;;;;;;5203521;28;20279;-47
2023/04/30 05:08:06;;;;;;;9.30;2.57;;;9.60;99.90;;;;;;5203578;28;20889;-46
2023/04/30 05:10:37;;;;;;;7.10;2.90;;;9.80;99.90;;;;;;5204695;28;20188;-47
2023/04/30 05:13:07;;;;;;;5.23;2.53;;;10.20;99.90;;;;;;5205793;28;20202;-49
2023/04/30 05:15:38;;;;;;;4.57;2.60;;;10.70;99.90;;;;;;5202246;28;20211;-48
2023/04/30 05:18:09;;;;;;;9.47;2.53;;;12.30;99.90;;;;;;5203203;28;20282;-48
2023/04/30 05:20:39;;;;;;;2.37;2.17;;;14.70;87.20;;;;;;5200832;28;20197;-47
2023/04/30 05:23:10;;;;;;;4.17;2.70;;;16.60;67.30;;;;;;5202332;28;20283;-47
2023/04/30 05:25:41;;;;;;;9.80;3.03;;;18.50;54.10;;;;;;5200214;28;20589;-46
2023/04/30 05:28:11;;;;;;;5.10;2.67;;;19.50;48.50;;;;;;5200411;28;20501;-46
2023/04/30 05:30:42;;;;;;;4.60;3.07;;;20.70;45.90;;;;;;5201179;28;20188;-47
2023/04/30 05:33:13;;;;;;;3.60;2.17;;;21.30;41.50;;;;;;5198136;28;20192;-46
2023/04/30 05:35:43;;;;;;;5.87;2.50;;;22.10;41.30;;;;;;5200343;28;20221;-47
2023/04/30 05:38:14;;;;;;;6.23;2.80;;;22.90;39.10;;;;;;5207563;28;20195;-47
2023/04/30 05:40:45;;;;;;;2.73;2.50;;;23.60;37.80;;;;;;5199294;28;20635;-47
2023/04/30 05:43:15;;;;;;;3.90;2.47;;;23.40;35.70;;;;;;5198507;28;20188;-46
2023/04/30 05:45:46;;;;;;;6.60;2.33;;;23.30;36.50;;;;;;5213784;28;20215;-48
2023/04/30 05:48:16;;;;;;;5.00;2.10;;;23.90;35.90;;;;;;5199353;28;20651;-46
2023/04/30 05:50:47;;;;;;;4.63;2.53;;;23.70;35.00;;;;;;5217343;28;20187;-46
2023/04/30 05:53:18;;;;;;;3.43;2.13;;;24.20;35.20;;;;;;5206163;28;20266;-48
2023/04/30 05:55:49;;;;;;;4.60;2.47;;;25.20;33.80;;;;;;5201557;28;20199;-46
2023/04/30 05:58:20;;;;;;;7.23;2.63;;;25.60;33.20;;;;;;5199213;28;20291;-47
2023/04/30 06:00:51;;;;;;;4.07;2.80;;;26.10;31.80;;;;;;5201708;28;20888;-46
2023/04/30 06:03:22;;;;;;;4.63;2.07;;;26.20;30.90;;;;;;5195768;28;20183;-46
2023/04/30 06:05:53;;;;;;;3.93;2.60;;;26.00;30.20;;;;;;5202980;28;20541;-46
2023/04/30 06:08:24;;;;;;;7.30;2.80;;;25.10;30.90;;;;;;5196737;28;20557;-46
2023/04/30 06:10:55;;;;;;;6.17;2.23;;;24.90;31.00;;;;;;5216795;28;20477;-46
2023/04/30 06:13:25;;;;;;;5.37;2.27;;;25.20;31.00;;;;;;5201988;28;20326;-46
2023/04/30 06:15:56;;;;;;;11.03;2.77;;;26.10;30.00;;;;;;5201027;28;20215;-47
2023/04/30 06:18:26;;;;;;;5.33;2.07;;;26.90;29.40;;;;;;5179092;28;20208;-46
2023/04/30 06:20:57;;;;;;;5.33;2.47;;;27.50;28.90;;;;;;5197067;28;20194;-45
2023/04/30 06:23:28;;;;;;;7.93;2.30;;;27.80;28.10;;;;;;5199941;28;20183;-45
2023/04/30 06:25:58;;;;;;;2.57;1.87;;;27.60;28.10;;;;;;5196938;28;20179;-47
2023/04/30 06:28:29;;;;;;;3.57;2.27;;;27.40;27.90;;;;;;5194158;28;20610;-47
2023/04/30 06:31:00;;;;;;;2.70;2.10;;;27.40;28.20;;;;;;5198641;28;20536;-46
2023/04/30 06:33:30;;;;;;;4.50;2.17;;;27.90;27.80;;;;;;5192709;28;20187;-46
2023/04/30 06:36:01;;;;;;;9.17;2.90;;;27.60;27.20;;;;;;5195713;28;20271;-46
2023/04/30 06:38:31;;;;;;;4.43;2.00;;;26.70;27.70;;;;;;5194097;28;20191;-46
2023/04/30 06:41:02;;;;;;;4.93;2.07;;;27.00;28.00;;;;;;5196608;28;20278;-45
2023/04/30 06:43:33;;;;;;;8.03;2.53;;;27.50;27.70;;;;;;5195178;28;20264;-45
2023/04/30 06:46:05;;;;;;;8.13;3.10;;;28.00;27.10;;;;;;5197193;28;20196;-47
2023/04/30 06:48:36;;;;;;;18.90;3.20;;;28.30;26.30;;;;;;5194467;28;20203;-46
2023/04/30 06:51:06;;;;;;;4.67;2.50;;;28.30;26.60;;;;;;5197503;28;20472;-45
2023/04/30 06:53:37;;;;;;;4.40;2.27;;;28.70;26.20;;;;;;5182539;28;20221;-46
2023/04/30 06:56:07;;;;;;;9.07;2.93;;;28.40;25.90;;;;;;5193828;28;20179;-45
2023/04/30 06:58:38;;;;;;;3.53;2.37;;;28.10;27.10;;;;;;5196533;28;20183;-47
2023/04/30 07:01:09;;;;;;;5.90;2.70;;;28.50;26.50;;;;;;5193231;28;20219;-46
2023/04/30 07:03:39;;;;;;;7.80;3.17;;;28.60;26.10;;;;;;5197752;28;20613;-46
2023/04/30 07:06:10;;;;;;;8.23;2.47;;;28.10;26.10;;;;;;5192367;28;20188;-47
2023/04/30 07:08:42;;;;;;;6.47;2.53;;;28.50;26.30;;;;;;5188673;28;20349;-46
2023/04/30 07:11:13;;;;;;;3.33;1.93;;;28.80;26.00;;;;;;5197401;28;20186;-46
2023/04/30 07:13:43;;;;;;;10.40;2.60;;;28.60;25.90;;;;;;5198469;28;21615;-47
2023/04/30 07:16:15;;;;;;;5.30;2.57;;;28.60;25.70;;;;;;5196276;28;20192;-46
2023/04/30 07:18:47;;;;;;;3.70;2.43;;;28.20;25.70;;;;;;5196617;28;20187;-45
2023/04/30 07:21:18;;;;;;;3.33;2.50;;;28.00;26.30;;;;;;5200789;28;20793;-47
2023/04/30 07:23:50;;;;;;;9.60;2.80;;;28.60;25.80;;;;;;5193574;28;20462;-47
2023/04/30 07:26:23;;;;;;;5.03;2.33;;;28.80;25.40;;;;;;5192552;28;20207;-46
2023/04/30 07:28:54;;;;;;;6.50;2.80;;;28.90;25.10;;;;;;5198098;28;20474;-45
2023/04/30 07:31:25;;;;;;;7.20;2.37;;;29.10;24.60;;;;;;5193350;28;20930;-46
2023/04/30 07:33:57;;;;;;;5.23;2.63;;;28.90;24.70;;;;;;5188143;28;20298;-47
2023/04/30 07:36:27;;;;;;;4.33;2.30;;;29.30;24.90;;;;;;5196316;28;20529;-47
2023/04/30 07:38:58;;;;;;;8.93;2.67;;;29.50;24.60;;;;;;5197532;28;20523;-47
2023/04/30 07:41:29;;;;;;;6.03;2.10;;;29.60;24.00;;;;;;5198490;28;20234;-45
2023/04/30 07:43:59;;;;;;;5.43;2.23;;;28.50;24.30;;;;;;5197323;28;20208;-45
2023/04/30 07:46:30;;;;;;;8.53;3.40;;;28.10;25.00;;;;;;5199228;28;20195;-46
2023/04/30 07:49:01;;;;;;;11.70;3.00;;;27.70;25.30;;;;;;5184135;28;20187;-46
2023/04/30 07:51:32;;;;;;;3.47;2.10;;;27.60;25.80;;;;;;5201389;28;20229;-46
2023/04/30 07:54:03;;;;;;;3.00;2.77;;;26.90;25.60;;;;;;5198781;28;20482;-46
2023/04/30 07:56:34;;;;;;;8.63;2.63;;;27.20;26.30;;;;;;5197860;28;20505;-46
2023/04/30 07:59:05;;;;;;;6.43;2.80;;;27.40;25.60;;;;;;5202680;28;20442;-48
2023/04/30 08:01:36;;;;;;;5.10;2.60;;;27.80;25.50;;;;;;5198194;28;20460;-47
2023/04/30 08:04:07;;;;;;;2.77;2.07;;;28.20;24.90;;;;;;5193929;28;20207;-47
2023/04/30 08:06:37;;;;;;;3.13;2.10;;;28.50;24.80;;;;;;5197686;28;20184;-47
2023/04/30 08:09:08;;;;;;;3.70;2.90;;;28.10;24.50;;;;;;5199427;28;20191;-47
2023/04/30 08:11:39;;;;;;;3.87;1.93;;;28.30;24.20;;;;;;5185332;28;20671;-46
2023/04/30 08:14:09;;;;;;;2.00;1.80;;;28.00;23.90;;;;;;5201381;28;20215;-46
2023/04/30 08:16:40;;;;;;;5.23;2.23;;;27.60;24.30;;;;;;5204117;28;20408;-50
2023/04/30 08:19:11;;;;;;;5.67;2.50;;;27.40;24.50;;;;;;5216442;28;20193;-47
2023/04/30 08:21:41;;;;;;;3.27;2.50;;;26.60;23.50;;;;;;5199642;28;20310;-46
2023/04/30 08:24:12;;;;;;;8.83;2.20;;;24.80;24.90;;;;;;5201145;28;20199;-46
2023/04/30 08:26:43;;;;;;;7.17;3.13;;;25.20;26.00;;;;;;5207773;28;20656;-46
2023/04/30 08:29:13;;;;;;;3.80;2.20;;;25.20;25.30;;;;;;5199189;28;20184;-46
2023/04/30 08:31:45;;;;;;;8.63;1.97;;;24.90;25.30;;;;;;5193173;28;20226;-47
2023/04/30 08:34:15;;;;;;;6.20;1.80;;;24.70;25.70;;;;;;5195928;28;20876;-47
2023/04/30 08:36:46;;;;;;;7.40;2.83;;;24.20;26.30;;;;;;5195426;28;20440;-48
2023/04/30 08:39:17;;;;;;;2.40;2.07;;;23.60;26.60;;;;;;5212963;28;20271;-47
2023/04/30 08:41:55;;;;;;;3.30;2.23;;;22.50;26.90;;;;;;5199080;28;20184;-48
2023/04/30 08:44:27;;;;;;;7.03;2.10;;;21.50;28.00;;;;;;5197209;28;20203;-44
2023/04/30 08:46:58;;;;;;;3.70;1.97;;;20.20;27.80;;;;;;5197698;28;20489;-49
2023/04/30 08:49:31;;;;;;;4.53;2.30;;;19.60;28.20;;;;;;5198693;28;20899;-46
2023/04/30 08:52:02;;;;;;;2.77;1.97;;;19.00;29.10;;;;;;5215388;28;20461;-46
2023/04/30 08:54:35;;;;;;;7.10;2.43;;;19.00;29.60;;;;;;5203534;28;20462;-46
2023/04/30 08:57:06;;;;;;;9.00;2.03;;;18.80;30.00;;;;;;5202130;28;20314;-47
2023/04/30 08:59:37;;;;;;;2.53;1.90;;;17.80;29.60;;;;;;5200387;28;20442;-45
2023/04/30 09:02:09;;;;;;;5.53;2.27;;;16.50;30.40;;;;;;5199509;28;20499;-46
2023/04/30 09:04:40;;;;;;;3.07;2.10;;;15.40;30.60;;;;;;5202841;28;20233;-45
2023/04/30 09:07:13;;;;;;;6.57;1.90;;;14.50;31.90;;;;;;5203103;28;20458;-46
2023/04/30 09:09:43;;;;;;;3.23;1.77;;;13.90;33.60;;;;;;5202905;28;20630;-46
2023/04/30 09:12:18;;;;;;;2.33;1.53;;;13.70;34.50;;;;;;5201938;28;20443;-45
2023/04/30 09:15:03;;;;;;;5.20;2.30;;;13.40;33.10;;;;;;5198732;28;20245;-45
2023/04/30 09:17:34;;;;;;;3.37;1.50;;;13.10;33.70;;;;;;5220132;28;20462;-45
2023/04/30 09:20:09;;;;;;;2.43;1.67;;;13.10;33.90;;;;;;5206370;28;20877;-44
2023/04/30 09:22:41;;;;;;;4.67;2.47;;;12.90;34.40;;;;;;5200620;28;20183;-45
2023/04/30 09:25:11;;;;;;;5.47;2.17;;;13.00;35.40;;;;;;5205227;28;20481;-45
2023/04/30 09:27:43;;;;;;;4.80;1.93;;;12.80;35.50;;;;;;5217585;28;20462;-47
2023/04/30 09:30:30;;;;;;;2.43;2.27;;;12.70;36.40;;;;;;5202305;28;20183;-47
2023/04/30 09:33:02;;;;;;;2.20;1.93;;;12.50;36.70;;;;;;5196081;28;20561;-45
2023/04/30 09:35:34;;;;;;;5.43;1.77;;;12.20;35.80;;;;;;5193431;28;20450;-47
2023/04/30 09:38:05;;;;;;;1.70;1.10;;;12.10;35.20;;;;;;5195086;28;20442;-45
2023/04/30 09:40:40;;;;;;;3.77;1.97;;;12.00;33.70;;;;;;5208155;28;20477;-47
2023/04/30 09:43:12;;;;;;;6.60;2.17;;;11.90;34.30;;;;;;5210658;28;20575;-46
2023/04/30 09:45:48;;;;;;;1.60;1.50;;;12.10;35.20;;;;;;5198150;28;20469;-50
2023/04/30 09:48:23;;;;;;;1.20;1.20;;;12.20;34.50;;;;;;5194103;28;20977;-45
2023/04/30 09:50:54;;;;;;;1.50;1.50;;;12.30;33.70;;;;;;5192872;28;20496;-47
2023/04/30 09:53:26;;;;;;;1.93;1.33;;;12.40;33.20;;;;;;5197364;28;20914;-46
2023/04/30 09:55:58;;;;;;;6.00;1.97;;;12.40;32.90;;;;;;5214328;28;20184;-46
2023/04/30 09:58:34;;;;;;;1.80;1.70;;;12.40;32.20;;;;;;5198856;28;21546;-45
2023/04/30 10:01:07;;;;;;;2.20;1.93;;;12.50;32.90;;;;;;5201391;28;20512;-46
2023/04/30 10:03:42;;;;;;;1.83;1.67;;;12.50;32.70;;;;;;5198342;28;20484;-46
2023/04/30 10:06:15;;;;;;;5.37;2.30;;;12.70;33.20;;;;;;5201273;28;20441;-46
2023/04/30 10:08:50;;;;;;;3.50;2.17;;;12.60;33.90;;;;;;5197820;28;20473;-46
2023/04/30 10:11:26;;;;;;;4.77;3.27;;;12.70;34.90;;;;;;5194316;28;20616;-46
2023/04/30 10:14:03;;;;;;;3.80;2.27;;;12.90;34.90;;;;;;5213150;28;20465;-46
2023/04/30 10:16:48;;;;;;;2.67;2.43;;;12.90;35.30;;;;;;5195854;28;20446;-46
2023/04/30 10:19:25;;;;;;;4.83;2.13;;;12.90;35.30;;;;;;5197818;28;20460;-44
2023/04/30 10:21:56;;;;;;;7.80;2.03;;;13.00;35.60;;;;;;5202578;28;20466;-46
2023/04/30 10:24:27;;;;;;;3.23;2.00;;;12.90;34.60;;;;;;5216378;28;20462;-48
2023/04/30 10:26:58;;;;;;;9.70;2.60;;;12.80;34.10;;;;;;5216515;28;20461;-44
2023/04/30 10:29:29;;;;;;;3.27;2.33;;;12.60;34.00;;;;;;5215101;28;20492;-46
2023/04/30 10:32:00;;;;;;;3.50;2.73;;;12.60;34.80;;;;;;5194856;28;20438;-47
2023/04/30 10:34:55;;;;;;;8.93;5.87;;;12.70;35.20;;;;;;5195243;28;20207;-46
2023/04/30 10:37:25;;;;;;;3.63;3.33;;;12.90;35.60;;;;;;5199160;28;20442;-46
2023/04/30 10:39:56;;;;;;;6.80;3.70;;;12.90;35.50;;;;;;5198384;28;20452;-46
2023/04/30 10:42:27;;;;;;;10.40;5.80;;;13.10;36.10;;;;;;5200504;28;20186;-47
2023/04/30 10:44:57;;;;;;;9.27;5.23;;;13.10;35.50;;;;;;5206861;28;20237;-45
2023/04/30 10:47:29;;;;;;;6.57;2.70;;;13.20;36.20;;;;;;5202818;28;20330;-46
2023/04/30 10:50:07;;;;;;;4.97;2.40;;;13.30;36.40;;;;;;5201371;28;20253;-46
2023/04/30 10:52:38;;;;;;;4.40;2.03;;;13.30;36.30;;;;;;5199804;28;20469;-48
2023/04/30 10:55:09;;;;;;;5.30;2.47;;;13.40;35.70;;;;;;5199415;28;20556;-46
2023/04/30 10:57:47;;;;;;;3.87;2.23;;;13.30;35.50;;;;;;5213994;28;20223;-46
2023/04/30 11:00:19;;;;;;;9.43;2.50;;;13.00;34.80;;;;;;5205249;28;20449;-48
2023/04/30 11:02:55;;;;;;;13.47;5.40;;;12.90;35.20;;;;;;5201913;28;20447;-46
2023/04/30 11:05:38;;;;;;;3.60;3.00;;;12.90;36.10;;;;;;5201568;28;20976;-45
2023/04/30 11:08:12;;;;;;;15.07;5.20;;;13.10;36.30;;;;;;5221842;28;20469;-48
2023/04/30 11:11:00;;;;;;;5.10;3.47;;;13.30;35.80;;;;;;5200371;28;20434;-46
2023/04/30 11:13:42;;;;;;;15.20;3.50;;;13.40;35.40;;;;;;5197358;28;20491;-46
2023/04/30 11:16:16;;;;;;;13.87;7.10;;;13.40;35.50;;;;;;5203413;28;20784;-47
2023/04/30 11:18:51;;;;;;;4.20;2.60;;;13.50;36.00;;;;;;5201340;28;20965;-47
2023/04/30 11:21:22;;;;;;;4.90;2.40;;;13.50;35.60;;;;;;5194481;28;20441;-46
2023/04/30 11:24:03;;;;;;;7.53;3.10;;;13.40;35.60;;;;;;5198310;28;20996;-48
2023/04/30 11:27:02;;;;;;;2.97;1.80;;;13.40;35.60;;;;;;5190049;28;20876;-47
2023/04/30 11:29:33;;;;;;;2.40;1.90;;;13.50;35.20;;;;;;5197453;28;20430;-46
2023/04/30 11:32:05;;;;;;;3.90;1.70;;;13.30;35.60;;;;;;5200363;28;20914;-45
2023/04/30 11:34:37;;;;;;;2.67;2.30;;;13.40;36.30;;;;;;5191792;28;20916;-46
2023/04/30 11:37:10;;;;;;;2.30;2.10;;;13.50;35.90;;;;;;5199065;28;20492;-46
2023/04/30 11:39:42;;;;;;;4.43;2.10;;;13.60;35.70;;;;;;5203126;28;20433;-46
2023/04/30 11:42:22;;;;;;;3.63;2.07;;;13.60;35.60;;;;;;5204249;28;21127;-45
2023/04/30 11:44:52;;;;;;;5.60;2.80;;;13.50;35.10;;;;;;5211188;28;20459;-46
2023/04/30 11:47:23;;;;;;;2.43;1.70;;;13.30;35.00;;;;;;5209578;28;20623;-46
2023/04/30 11:49:56;;;;;;;9.40;2.20;;;13.40;36.00;;;;;;5210476;28;20202;-47
2023/04/30 11:52:27;;;;;;;4.20;2.50;;;13.40;36.00;;;;;;5207880;28;20591;-46
2023/04/30 11:54:59;;;;;;;3.20;2.50;;;13.40;35.20;;;;;;5214808;28;20521;-46
2023/04/30 11:57:39;;;;;;;9.80;2.60;;;13.40;35.20;;;;;;5210642;28;20179;-46
2023/04/30 12:00:15;;;;;;;3.40;3.10;;;13.50;35.30;;;;;;5217702;28;20541;-46
2023/04/30 12:02:48;;;;;;;3.67;2.40;;;13.70;35.90;;;;;;5219303;28;20442;-46
2023/04/30 12:05:21;;;;;;;5.60;2.93;;;13.90;36.10;;;;;;5223169;28;21007;-45
2023/04/30 12:08:06;;;;;;;15.10;3.30;;;14.00;36.60;;;;;;5222387;28;20494;-48
2023/04/30 12:10:37;;;;;;;1.83;1.60;;;14.00;35.10;;;;;;5206092;28;20511;-47
2023/04/30 12:13:13;;;;;;;15.73;3.70;;;14.00;34.90;;;;;;5210953;28;20414;-47
2023/04/30 12:15:57;;;;;;;5.40;3.77;;;13.90;35.70;;;;;;5224470;28;20257;-46
2023/04/30 12:18:28;;;;;;;4.27;3.10;;;13.90;36.00;;;;;;5212086;28;20476;-47
2023/04/30 12:20:59;;;;;;;7.83;2.23;;;14.20;36.10;;;;;;5208608;28;20481;-46
2023/04/30 12:23:30;;;;;;;2.37;2.17;;;14.30;35.60;;;;;;5206952;28;20184;-47
2023/04/30 12:26:01;;;;;;;3.03;2.10;;;14.00;35.30;;;;;;5222786;28;20441;-46
2023/04/30 12:28:33;;;;;;;2.77;1.97;;;13.80;36.20;;;;;;5207096;28;20218;-46
2023/04/30 12:31:04;;;;;;;2.53;2.33;;;13.60;36.30;;;;;;5221990;28;20238;-45
2023/04/30 12:33:36;;;;;;;2.30;1.73;;;13.60;36.70;;;;;;5206428;28;20434;-46
2023/04/30 12:36:10;;;;;;;5.00;2.00;;;13.70;36.80;;;;;;5209492;28;20434;-46
2023/04/30 12:38:43;;;;;;;1.73;1.63;;;13.90;37.30;;;;;;5210382;28;20525;-46
2023/04/30 12:41:16;;;;;;;6.73;2.90;;;14.00;36.70;;;;;;5208730;28;20442;-45
2023/04/30 12:43:47;;;;;;;4.50;2.20;;;14.00;36.50;;;;;;5211985;28;20833;-46
2023/04/30 12:46:26;;;;;;;2.10;1.80;;;14.00;36.00;;;;;;5207018;28;20521;-46
2023/04/30 12:48:58;;;;;;;2.90;2.07;;;14.10;36.20;;;;;;5207051;28;21375;-46
2023/04/30 12:51:34;;;;;;;10.03;2.50;;;14.10;36.50;;;;;;5208621;28;20562;-49
2023/04/30 12:54:05;;;;;;;2.43;2.13;;;14.00;36.70;;;;;;5208675;28;20476;-47
2023/04/30 12:56:36;;;;;;;2.57;2.47;;;13.90;37.80;;;;;;5208053;28;20434;-45
2023/04/30 12:59:15;;;;;;;3.40;2.60;;;13.90;37.80;;;;;;5205684;28;20446;-47
2023/04/30 13:01:46;;;;;;;2.43;1.83;;;14.10;38.00;;;;;;5214134;28;20228;-45
2023/04/30 13:04:16;;;;;;;3.20;1.83;;;14.10;37.90;;;;;;5205574;28;20462;-47
2023/04/30 13:06:48;;;;;;;2.67;1.73;;;14.00;37.40;;;;;;5212940;28;20192;-46
2023/04/30 13:09:18;;;;;;;4.60;2.47;;;13.80;38.10;;;;;;5222005;28;20659;-45
2023/04/30 13:11:49;;;;;;;5.10;2.80;;;13.70;38.30;;;;;;5221499;28;20442;-47
2023/04/30 13:14:20;;;;;;;3.93;2.87;;;13.70;38.90;;;;;;5220787;28;20677;-45
2023/04/30 13:16:50;;;;;;;11.37;7.50;;;13.80;38.60;;;;;;5205963;28;20267;-45
2023/04/30 13:19:21;;;;;;;4.63;3.03;;;14.00;38.30;;;;;;5206221;28;20257;-47